createdAt,value
2022-11-08T00:02:26.055Z,18.47
2022-11-08T00:04:53.232Z,18.45
2022-11-08T00:07:38.749Z,18.41
2022-11-08T00:10:27.585Z,18.39
2022-11-08T00:13:13.017Z,18.38
2022-11-08T00:15:39.946Z,18.37
2022-11-08T00:18:08.044Z,18.35
2022-11-08T00:20:35.090Z,18.33
2022-11-08T00:23:02.143Z,18.35
2022-11-08T00:25:30.454Z,18.34
2022-11-08T00:27:57.859Z,18.38
2022-11-08T00:30:24.819Z,18.39
2022-11-08T00:32:51.802Z,18.41
2022-11-08T00:35:18.748Z,18.47
2022-11-08T00:37:45.703Z,18.49
2022-11-08T00:40:13.164Z,18.49
2022-11-08T00:42:41.422Z,18.54
2022-11-08T00:45:09.161Z,18.56
2022-11-08T00:47:36.096Z,18.50
2022-11-08T00:50:03.371Z,18.52
2022-11-08T00:52:30.378Z,18.49
2022-11-08T00:54:57.310Z,18.45
2022-11-08T00:57:35.889Z,18.37
2022-11-08T01:00:14.544Z,18.40
2022-11-08T01:02:41.936Z,18.41
2022-11-08T01:05:09.311Z,18.50
2022-11-08T01:07:38.219Z,18.56
2022-11-08T01:10:07.508Z,18.55
2022-11-08T01:12:34.445Z,18.51
2022-11-08T01:15:01.509Z,18.56
2022-11-08T01:17:29.837Z,18.58
2022-11-08T01:19:56.816Z,18.63
2022-11-08T01:22:23.765Z,18.65
2022-11-08T01:24:50.710Z,18.62
2022-11-08T01:27:17.669Z,18.58
2022-11-08T01:29:44.606Z,18.55
2022-11-08T01:32:11.521Z,18.54
2022-11-08T01:34:39.802Z,18.48
2022-11-08T01:37:06.726Z,18.43
2022-11-08T01:39:33.888Z,18.46
2022-11-08T01:42:00.822Z,18.44
2022-11-08T01:44:27.856Z,18.47
2022-11-08T01:46:54.818Z,18.41
2022-11-08T01:49:52.872Z,18.30
2022-11-08T01:52:29.699Z,18.27
2022-11-08T01:55:16.377Z,18.18
2022-11-08T01:57:51.363Z,18.17
2022-11-08T02:00:19.771Z,18.16
2022-11-08T02:02:54.527Z,18.12
2022-11-08T02:05:26.931Z,18.14
2022-11-08T02:08:02.091Z,18.12
2022-11-08T02:10:35.761Z,18.05
2022-11-08T02:13:05.168Z,18.02
2022-11-08T02:15:33.382Z,18.01
2022-11-08T02:18:00.734Z,17.98
2022-11-08T02:20:29.357Z,17.93
2022-11-08T02:23:05.290Z,17.86
2022-11-08T02:25:33.941Z,17.78
2022-11-08T02:28:00.936Z,17.72
2022-11-08T02:30:36.798Z,17.67
2022-11-08T02:33:15.559Z,17.68
2022-11-08T02:35:46.204Z,17.70
2022-11-08T02:38:13.165Z,17.68
2022-11-08T02:40:49.611Z,17.63
2022-11-08T02:43:16.678Z,17.63
2022-11-08T02:45:43.987Z,17.55
2022-11-08T02:48:11.348Z,17.48
2022-11-08T02:50:38.357Z,17.48
2022-11-08T02:53:05.719Z,17.46
2022-11-08T02:55:34.736Z,17.39
2022-11-08T02:58:04.930Z,17.30
2022-11-08T03:00:32.569Z,17.33
2022-11-08T03:02:59.591Z,17.31
2022-11-08T03:05:28.526Z,17.28
2022-11-08T03:07:56.704Z,17.27
2022-11-08T03:10:27.707Z,17.22
2022-11-08T03:12:58.478Z,17.19
2022-11-08T03:15:28.116Z,17.16
2022-11-08T03:17:56.332Z,17.16
2022-11-08T03:20:28.311Z,17.16
2022-11-08T03:22:59.620Z,17.14
2022-11-08T03:25:27.057Z,17.12
2022-11-08T03:27:54.074Z,17.08
2022-11-08T03:30:21.914Z,17.08
2022-11-08T03:32:50.544Z,17.06
2022-11-08T03:35:17.525Z,17.01
2022-11-08T03:37:50.591Z,16.97
2022-11-08T03:40:18.726Z,17.00
2022-11-08T03:42:46.294Z,16.92
2022-11-08T03:45:14.958Z,16.89
2022-11-08T03:47:44.937Z,16.86
2022-11-08T03:50:15.909Z,16.85
2022-11-08T03:52:43.814Z,16.90
2022-11-08T03:55:12.314Z,16.89
2022-11-08T03:57:41.179Z,16.80
2022-11-08T04:00:11.639Z,16.76
2022-11-08T04:02:40.103Z,16.73
2022-11-08T04:05:09.392Z,16.74
2022-11-08T04:07:38.195Z,16.68
2022-11-08T04:10:08.296Z,16.60
2022-11-08T04:12:57.130Z,16.60
2022-11-08T04:15:25.606Z,16.58
2022-11-08T04:18:13.179Z,16.59
2022-11-08T04:21:00.465Z,16.55
2022-11-08T04:23:30.626Z,16.53
2022-11-08T04:25:59.977Z,16.53
2022-11-08T04:28:30.366Z,16.52
2022-11-08T04:30:59.978Z,16.53
2022-11-08T04:33:27.479Z,16.50
2022-11-08T04:35:54.619Z,16.54
2022-11-08T04:38:22.107Z,16.55
2022-11-08T04:40:50.428Z,16.62
2022-11-08T04:43:17.365Z,16.62
2022-11-08T04:45:44.377Z,16.66
2022-11-08T04:48:11.551Z,16.64
2022-11-08T04:50:38.535Z,16.61
2022-11-08T04:53:05.480Z,16.64
2022-11-08T04:55:32.529Z,16.65
2022-11-08T04:58:00.855Z,16.59
2022-11-08T05:00:27.996Z,16.55
2022-11-08T05:02:55.126Z,16.49
2022-11-08T05:05:22.862Z,16.53
2022-11-08T05:07:49.945Z,16.60
2022-11-08T05:10:17.223Z,16.56
2022-11-08T05:12:44.275Z,16.56
2022-11-08T05:15:13.162Z,16.56
2022-11-08T05:17:40.193Z,16.57
2022-11-08T05:20:28.913Z,16.56
2022-11-08T05:23:20.060Z,16.51
2022-11-08T05:25:47.229Z,16.45
2022-11-08T05:28:14.489Z,16.45
2022-11-08T05:30:43.042Z,16.45
2022-11-08T05:33:10.461Z,16.45
2022-11-08T05:35:37.453Z,16.44
2022-11-08T05:38:04.439Z,16.43
2022-11-08T05:40:33.597Z,16.46
2022-11-08T05:43:00.983Z,16.43
2022-11-08T05:45:28.309Z,16.40
2022-11-08T05:47:57.682Z,16.40
2022-11-08T05:50:25.027Z,16.37
2022-11-08T05:52:54.774Z,16.35
2022-11-08T05:55:22.015Z,16.38
2022-11-08T05:57:49.340Z,16.39
2022-11-08T06:00:17.551Z,16.39
2022-11-08T06:02:44.992Z,16.36
2022-11-08T06:05:13.756Z,16.38
2022-11-08T06:07:40.728Z,16.36
2022-11-08T06:10:09.140Z,16.32
2022-11-08T06:12:38.000Z,16.32
2022-11-08T06:15:06.666Z,16.30
2022-11-08T06:17:34.548Z,16.31
2022-11-08T06:20:01.637Z,16.33
2022-11-08T06:22:32.572Z,16.37
2022-11-08T06:25:00.026Z,16.41
2022-11-08T06:27:27.735Z,16.47
2022-11-08T06:29:54.726Z,16.48
2022-11-08T06:32:21.831Z,16.52
2022-11-08T06:34:49.137Z,16.57
2022-11-08T06:37:16.635Z,16.54
2022-11-08T06:39:44.988Z,16.48
2022-11-08T06:42:12.114Z,16.45
2022-11-08T06:44:39.121Z,16.41
2022-11-08T06:47:06.241Z,16.34
2022-11-08T06:49:33.380Z,16.32
2022-11-08T06:52:00.385Z,16.21
2022-11-08T06:54:27.631Z,16.14
2022-11-08T06:56:56.026Z,16.09
2022-11-08T06:59:23.190Z,16.08
2022-11-08T07:01:50.308Z,16.07
2022-11-08T07:04:17.380Z,16.08
2022-11-08T07:06:44.361Z,16.07
2022-11-08T07:09:17.988Z,16.04
2022-11-08T07:11:45.056Z,16.03
2022-11-08T07:14:13.435Z,16.07
2022-11-08T07:16:40.463Z,16.11
2022-11-08T07:19:07.781Z,16.19
2022-11-08T07:21:34.747Z,16.26
2022-11-08T07:24:01.712Z,16.33
2022-11-08T07:26:28.825Z,16.38
2022-11-08T07:28:55.758Z,16.45
2022-11-08T07:31:24.969Z,16.51
2022-11-08T07:33:52.013Z,16.61
2022-11-08T07:36:19.220Z,16.68
2022-11-08T07:38:46.221Z,16.70
2022-11-08T07:41:13.249Z,16.77
2022-11-08T07:43:40.222Z,16.81
2022-11-08T07:46:10.835Z,16.80
2022-11-08T07:48:39.143Z,16.82
2022-11-08T07:51:06.958Z,16.82
2022-11-08T07:53:53.218Z,16.84
2022-11-08T07:56:49.558Z,16.76
2022-11-08T07:59:42.461Z,16.76
2022-11-08T08:02:10.887Z,16.80
2022-11-08T08:04:54.200Z,16.83
2022-11-08T08:07:21.551Z,16.84
2022-11-08T08:10:10.646Z,16.84
2022-11-08T08:13:03.736Z,16.84
2022-11-08T08:15:49.206Z,16.84
2022-11-08T08:18:19.257Z,16.87
2022-11-08T08:20:48.627Z,16.91
2022-11-08T08:23:32.005Z,17.01
2022-11-08T08:26:10.336Z,17.03
2022-11-08T08:29:03.447Z,17.08
2022-11-08T08:31:30.416Z,17.19
2022-11-08T08:33:58.894Z,17.27
2022-11-08T08:36:29.947Z,17.38
2022-11-08T08:38:57.971Z,17.47
2022-11-08T08:41:25.326Z,17.52
2022-11-08T08:43:53.596Z,17.56
2022-11-08T08:46:22.664Z,17.66
2022-11-08T08:49:10.983Z,17.72
2022-11-08T08:51:57.957Z,17.76
2022-11-08T08:54:38.009Z,17.88
2022-11-08T08:57:05.530Z,18.00
2022-11-08T09:02:39.804Z,18.21
2022-11-08T09:05:10.396Z,18.30
2022-11-08T09:07:43.410Z,18.42
2022-11-08T09:10:23.334Z,18.50
2022-11-08T09:12:50.646Z,18.48
2022-11-08T09:15:21.116Z,18.55
2022-11-08T09:17:48.398Z,18.61
2022-11-08T09:20:15.968Z,18.63
2022-11-08T09:22:44.366Z,18.65
2022-11-08T09:25:11.421Z,18.70
2022-11-08T09:27:40.462Z,18.69
2022-11-08T09:30:09.756Z,18.76
2022-11-08T09:32:59.286Z,18.76
2022-11-08T09:35:29.005Z,18.68
2022-11-08T09:37:59.171Z,18.68
2022-11-08T09:40:39.533Z,18.73
2022-11-08T09:43:30.051Z,18.79
2022-11-08T09:45:57.910Z,18.79
2022-11-08T09:48:34.030Z,18.76
2022-11-08T09:51:07.982Z,18.91
2022-11-08T09:53:47.501Z,19.01
2022-11-08T09:56:26.904Z,19.04
2022-11-08T09:59:02.101Z,19.14
2022-11-08T10:01:32.503Z,19.20
2022-11-08T10:04:05.117Z,19.13
2022-11-08T10:06:56.880Z,19.18
2022-11-08T10:09:53.367Z,19.10
2022-11-08T10:12:31.172Z,19.19
2022-11-08T10:15:14.815Z,19.23
2022-11-08T10:18:22.524Z,19.35
2022-11-08T10:21:14.783Z,19.44
2022-11-08T10:23:45.694Z,19.44
2022-11-08T10:26:19.665Z,19.56
2022-11-08T10:28:56.537Z,19.65
2022-11-08T10:31:23.505Z,19.63
2022-11-08T10:33:54.364Z,19.57
2022-11-08T10:36:30.858Z,19.69
2022-11-08T10:39:05.471Z,19.62
2022-11-08T10:41:47.137Z,19.56
2022-11-08T10:44:20.802Z,19.66
2022-11-08T10:46:51.172Z,19.82
2022-11-08T10:49:23.208Z,19.68
2022-11-08T10:51:54.294Z,19.66
2022-11-08T10:54:46.191Z,19.58
2022-11-08T10:57:17.652Z,19.62
2022-11-08T10:59:45.790Z,19.61
2022-11-08T11:02:26.156Z,19.70
2022-11-08T11:05:20.034Z,19.70
2022-11-08T11:08:01.903Z,19.77
2022-11-08T11:10:32.796Z,19.84
2022-11-08T11:13:12.072Z,19.82
2022-11-08T11:15:46.612Z,19.72
2022-11-08T11:18:25.601Z,19.81
2022-11-08T11:21:10.440Z,19.93
2022-11-08T11:23:43.115Z,20.02
2022-11-08T11:26:29.757Z,20.01
2022-11-08T11:29:19.342Z,19.95
2022-11-08T11:31:49.445Z,19.91
2022-11-08T11:34:45.642Z,19.97
2022-11-08T11:37:27.867Z,20.02
2022-11-08T11:40:07.388Z,20.03
2022-11-08T11:42:46.889Z,20.07
2022-11-08T11:45:27.246Z,20.16
2022-11-08T11:47:58.256Z,20.24
2022-11-08T11:50:33.792Z,20.22
2022-11-08T11:53:04.996Z,20.37
2022-11-08T11:55:57.893Z,20.34
2022-11-08T11:58:44.029Z,20.47
2022-11-08T12:01:27.324Z,20.42
2022-11-08T12:04:26.614Z,20.43
2022-11-08T12:07:05.220Z,20.47
2022-11-08T12:09:53.648Z,20.41
2022-11-08T12:12:42.149Z,20.50
2022-11-08T12:15:21.121Z,20.67
2022-11-08T12:18:45.362Z,20.65
2022-11-08T12:21:14.912Z,20.83
2022-11-08T12:24:19.912Z,20.76
2022-11-08T12:27:00.301Z,20.77
2022-11-08T12:29:34.484Z,20.82
2022-11-08T12:32:33.940Z,20.79
2022-11-08T12:35:23.322Z,20.84
2022-11-08T12:38:09.747Z,20.88
2022-11-08T12:40:48.811Z,20.93
2022-11-08T12:43:38.659Z,20.94
2022-11-08T12:46:12.892Z,21.00
2022-11-08T12:49:13.479Z,20.88
2022-11-08T12:52:00.990Z,20.92
2022-11-08T12:54:35.719Z,20.91
2022-11-08T12:57:10.552Z,20.93
2022-11-08T12:59:42.896Z,20.99
2022-11-08T13:02:18.872Z,20.96
2022-11-08T13:04:58.000Z,20.95
2022-11-08T13:07:39.325Z,20.92
2022-11-08T13:10:22.555Z,21.01
2022-11-08T13:13:11.800Z,21.02
2022-11-08T13:16:14.631Z,21.02
2022-11-08T13:18:48.786Z,21.08
2022-11-08T13:21:38.238Z,21.02
2022-11-08T13:24:44.555Z,20.97
2022-11-08T13:27:33.937Z,21.00
2022-11-08T13:30:38.355Z,20.89
2022-11-08T13:33:16.481Z,21.00
2022-11-08T13:36:00.826Z,21.01
2022-11-08T13:38:47.377Z,21.07
2022-11-08T13:41:19.280Z,21.17
2022-11-08T13:43:49.143Z,21.25
2022-11-08T13:46:47.932Z,21.20
2022-11-08T13:49:22.740Z,21.27
2022-11-08T13:51:51.587Z,21.28
2022-11-08T13:54:50.504Z,21.15
2022-11-08T13:57:57.521Z,21.16
2022-11-08T14:00:45.317Z,21.22
2022-11-08T14:03:53.666Z,21.18
2022-11-08T14:06:32.249Z,21.24
2022-11-08T14:09:16.177Z,21.21
2022-11-08T14:11:55.412Z,21.20
2022-11-08T14:14:56.061Z,21.11
2022-11-08T14:17:45.672Z,21.15
2022-11-08T14:20:31.196Z,21.11
2022-11-08T14:23:12.348Z,21.20
2022-11-08T14:25:40.800Z,21.18
2022-11-08T14:28:24.070Z,21.16
2022-11-08T14:30:53.404Z,21.15
2022-11-08T14:33:23.368Z,21.15
2022-11-08T14:35:57.828Z,21.10
2022-11-08T14:38:25.606Z,21.05
2022-11-08T14:40:55.738Z,20.97
2022-11-08T14:43:23.795Z,20.94
2022-11-08T14:45:53.584Z,20.98
2022-11-08T14:48:27.190Z,20.95
2022-11-08T14:51:00.214Z,20.87
2022-11-08T14:53:30.662Z,20.92
2022-11-08T14:56:14.040Z,20.92
2022-11-08T14:58:41.480Z,20.95
2022-11-08T15:01:13.136Z,20.91
2022-11-08T15:03:47.560Z,20.91
2022-11-08T15:06:15.014Z,20.94
2022-11-08T15:08:52.790Z,20.90
2022-11-08T15:11:29.731Z,20.93
2022-11-08T15:14:01.861Z,21.00
2022-11-08T15:16:40.795Z,20.97
2022-11-08T15:19:29.906Z,20.89
2022-11-08T15:22:00.954Z,20.85
2022-11-08T15:24:37.413Z,20.73
2022-11-08T15:27:16.660Z,20.61
2022-11-08T15:29:53.431Z,20.55
2022-11-08T15:32:23.115Z,20.50
2022-11-08T15:34:56.085Z,20.54
2022-11-08T15:37:31.863Z,20.60
2022-11-08T15:40:04.314Z,20.66
2022-11-08T15:42:34.856Z,20.66
2022-11-08T15:45:06.716Z,20.65
2022-11-08T15:47:46.035Z,20.59
2022-11-08T15:50:17.904Z,20.53
2022-11-08T15:52:47.805Z,20.43
2022-11-08T15:55:18.349Z,20.37
2022-11-08T15:57:48.326Z,20.35
2022-11-08T16:00:19.483Z,20.32
2022-11-08T16:02:48.315Z,20.34
2022-11-08T16:05:18.906Z,20.34
2022-11-08T16:07:47.667Z,20.28
2022-11-08T16:10:22.532Z,20.19
2022-11-08T16:12:49.542Z,20.06
2022-11-08T16:15:20.562Z,20.03
2022-11-08T16:17:49.302Z,20.03
2022-11-08T16:20:29.679Z,20.01
2022-11-08T16:22:59.171Z,20.10
2022-11-08T16:25:29.380Z,20.23
2022-11-08T16:27:59.213Z,20.27
2022-11-08T16:30:27.134Z,20.28
2022-11-08T16:32:55.886Z,20.22
2022-11-08T16:35:23.968Z,20.23
2022-11-08T16:37:52.496Z,20.24
2022-11-08T16:40:22.780Z,20.22
2022-11-08T16:42:51.659Z,20.25
2022-11-08T16:45:43.278Z,20.20
2022-11-08T16:48:17.815Z,20.06
2022-11-08T16:50:45.920Z,20.07
2022-11-08T16:53:16.611Z,20.07
2022-11-08T16:55:43.664Z,20.07
2022-11-08T16:58:11.502Z,20.04
2022-11-08T17:00:41.111Z,20.02
2022-11-08T17:03:13.735Z,20.05
2022-11-08T17:05:41.416Z,20.06
2022-11-08T17:08:08.425Z,20.07
2022-11-08T17:10:35.419Z,20.08
2022-11-08T17:13:02.480Z,20.05
2022-11-08T17:15:30.275Z,19.99
2022-11-08T17:17:58.994Z,19.97
2022-11-08T17:20:27.616Z,20.02
2022-11-08T17:22:54.932Z,20.03
2022-11-08T17:25:23.826Z,20.03
2022-11-08T17:27:52.516Z,20.02
2022-11-08T17:30:26.354Z,20.01
2022-11-08T17:32:54.164Z,20.01
2022-11-08T17:35:25.395Z,20.09
2022-11-08T17:37:57.707Z,20.08
2022-11-08T17:40:25.675Z,20.02
2022-11-08T17:42:52.970Z,20.06
2022-11-08T17:45:20.152Z,20.03
2022-11-08T17:47:47.144Z,20.09
2022-11-08T17:50:14.120Z,20.06
2022-11-08T17:52:41.679Z,20.03
2022-11-08T17:55:10.479Z,20.02
2022-11-08T17:57:37.424Z,20.01
2022-11-08T18:00:10.702Z,20.06
2022-11-08T18:02:39.010Z,20.01
2022-11-08T18:05:06.746Z,20.06
2022-11-08T18:07:33.687Z,20.05
2022-11-08T18:10:01.701Z,20.09
2022-11-08T18:12:30.026Z,20.07
2022-11-08T18:14:57.070Z,20.02
2022-11-08T18:17:27.270Z,20.03
2022-11-08T18:19:54.419Z,19.94
2022-11-08T18:22:21.409Z,19.90
2022-11-08T18:24:50.037Z,19.85
2022-11-08T18:27:17.362Z,19.87
2022-11-08T18:29:45.645Z,19.90
2022-11-08T18:32:12.644Z,19.83
2022-11-08T18:34:39.629Z,19.85
2022-11-08T18:37:06.651Z,19.89
2022-11-08T18:39:33.661Z,19.92
2022-11-08T18:42:01.008Z,19.80
2022-11-08T18:44:28.091Z,19.78
2022-11-08T18:46:56.437Z,19.71
2022-11-08T18:49:23.626Z,19.71
2022-11-08T18:51:52.079Z,19.72
2022-11-08T18:54:20.079Z,19.77
2022-11-08T18:56:47.155Z,19.77
2022-11-08T18:59:14.272Z,19.74
2022-11-08T19:01:41.313Z,19.74
2022-11-08T19:04:09.771Z,19.70
2022-11-08T19:06:36.836Z,19.61
2022-11-08T19:09:04.854Z,19.65
2022-11-08T19:11:32.200Z,19.65
2022-11-08T19:14:01.800Z,19.51
2022-11-08T19:16:29.479Z,19.49
2022-11-08T19:18:56.564Z,19.50
2022-11-08T19:21:28.263Z,19.45
2022-11-08T19:23:58.301Z,19.46
2022-11-08T19:26:27.506Z,19.43
2022-11-08T19:28:56.012Z,19.41
2022-11-08T19:31:25.307Z,19.39
2022-11-08T19:33:54.416Z,19.36
2022-11-08T19:36:26.499Z,19.34
2022-11-08T19:38:55.810Z,19.41
2022-11-08T19:41:25.851Z,19.35
2022-11-08T19:43:53.474Z,19.35
2022-11-08T19:46:24.456Z,19.34
2022-11-08T19:48:52.254Z,19.43
2022-11-08T19:51:21.815Z,19.44
2022-11-08T19:53:50.194Z,19.51
2022-11-08T19:56:19.758Z,19.52
2022-11-08T19:58:47.161Z,19.55
2022-11-08T20:01:17.957Z,19.59
2022-11-08T20:03:45.890Z,19.59
2022-11-08T20:06:14.833Z,19.55
2022-11-08T20:08:41.840Z,19.55
2022-11-08T20:11:15.023Z,19.56
2022-11-08T20:13:42.641Z,19.56
2022-11-08T20:16:12.121Z,19.50
2022-11-08T20:18:39.657Z,19.51
2022-11-08T20:21:08.035Z,19.52
2022-11-08T20:23:35.670Z,19.57
2022-11-08T20:26:07.463Z,19.58
2022-11-08T20:28:36.395Z,19.58
2022-11-08T20:31:11.714Z,19.54
2022-11-08T20:33:39.696Z,19.45
2022-11-08T20:36:09.473Z,19.43
2022-11-08T20:38:37.103Z,19.44
2022-11-08T20:41:07.195Z,19.45
2022-11-08T20:43:38.154Z,19.48
2022-11-08T20:46:08.086Z,19.51
2022-11-08T20:48:35.224Z,19.56
2022-11-08T20:51:05.578Z,19.54
2022-11-08T20:53:35.983Z,19.55
2022-11-08T20:56:06.034Z,19.59
2022-11-08T20:58:36.323Z,19.57
2022-11-08T21:01:07.285Z,19.59
2022-11-08T21:03:35.151Z,19.61
2022-11-08T21:06:04.762Z,19.59
2022-11-08T21:11:20.533Z,19.55
2022-11-08T21:13:49.477Z,19.54
2022-11-08T21:16:52.633Z,19.51
2022-11-08T21:19:05.166Z,19.47
2022-11-08T21:21:32.924Z,19.44
2022-11-08T21:24:00.020Z,19.38
2022-11-08T21:26:27.139Z,19.34
2022-11-08T21:28:55.454Z,19.33
2022-11-08T21:31:22.750Z,19.28
2022-11-08T21:33:49.677Z,19.25
2022-11-08T21:36:17.689Z,19.23
2022-11-08T21:38:45.459Z,19.22
2022-11-08T21:41:13.257Z,19.20
2022-11-08T21:43:43.161Z,19.20
2022-11-08T21:46:18.099Z,19.14
2022-11-08T21:48:45.884Z,19.13
2022-11-08T21:51:14.227Z,19.09
2022-11-08T21:53:52.526Z,19.06
2022-11-08T21:56:22.001Z,19.05
2022-11-08T21:58:49.107Z,19.04
2022-11-08T22:01:18.548Z,19.03
2022-11-08T22:03:46.353Z,19.00
2022-11-08T22:06:13.983Z,18.99
2022-11-08T22:08:40.887Z,18.99
2022-11-08T22:11:07.971Z,19.05
2022-11-08T22:13:35.194Z,19.06
2022-11-08T22:16:02.123Z,19.02
2022-11-08T22:18:50.869Z,19.03
2022-11-08T22:21:35.845Z,19.03
2022-11-08T22:24:02.834Z,19.03
2022-11-08T22:26:29.804Z,19.03
2022-11-08T22:28:56.763Z,19.10
2022-11-08T22:31:23.790Z,19.11
2022-11-08T22:33:52.068Z,19.12
2022-11-08T22:36:21.494Z,19.11
2022-11-08T22:38:48.429Z,19.05
2022-11-08T22:41:16.901Z,19.06
2022-11-08T22:43:44.285Z,19.02
2022-11-08T22:46:12.174Z,19.03
2022-11-08T22:48:39.513Z,19.01
2022-11-08T22:51:09.009Z,18.99
2022-11-08T22:53:36.692Z,19.01
2022-11-08T22:56:09.868Z,19.03
2022-11-08T22:58:38.843Z,19.02
2022-11-08T23:01:06.848Z,19.03
2022-11-08T23:03:33.877Z,19.04
2022-11-08T23:06:00.837Z,19.07
2022-11-08T23:08:29.473Z,19.05
2022-11-08T23:11:17.787Z,19.06
2022-11-08T23:14:03.220Z,19.09
2022-11-08T23:16:37.084Z,19.10
2022-11-08T23:19:25.694Z,19.16
2022-11-08T23:22:12.887Z,19.18
2022-11-08T23:24:42.949Z,19.17
2022-11-08T23:27:30.916Z,19.21
2022-11-08T23:30:16.842Z,19.23
2022-11-08T23:32:47.369Z,19.25
2022-11-08T23:35:16.445Z,19.26
2022-11-08T23:37:44.010Z,19.30
2022-11-08T23:40:34.226Z,19.32
2022-11-08T23:43:25.516Z,19.34
2022-11-08T23:45:52.579Z,19.31
2022-11-08T23:48:19.888Z,19.33
2022-11-08T23:50:52.193Z,19.37
2022-11-08T23:53:21.356Z,19.36
2022-11-08T23:55:49.838Z,19.36
2022-11-08T23:58:17.848Z,19.37
